Toivola, Michigan
Current Conditions -  °F | °C
As of 8:53 PM on Saturday 25 Oct 2014 (Local Time) from KCMX Reporting Station
Clear Clear  
Wind Chill: 42°   Ceiling: Unl
Heat Index: 49°   Visibility: 10mi
Dew Point: 32°   Wind: 23mph
Humidity: 52%   Direction: 300°WNW
Pressure: 29.83"   Gusts: 31mph
Location:  47°N, 88.77°W
Report Text: KCMX 260053Z AUTO 30020G27KT 10SM CLR 09/00 A2983 RMK AO2 PK WND 29031/0039 SLP105 T00940000
Loading
Personal Weather Stations






























Interactive Weather Map
Tropical Storm Tracking
New forecast layout! Learn more

10-Day Weather Forecast

Advertisements
Track Severe Weather on mobile